<?xml version="1.0" encoding="UTF-8" standalone="no" ?>
<gpx xmlns="http://www.topografix.com/GPX/1/1" xmlns:xsi="http://www.w3.org/2001/XMLSchema-instance" xsi:schemaLocation="http://www.topografix.com/GPX/1/1 http://www.topografix.com/GPX/1/1/gpx.xsd" version="1.1" creator="VisuGPX - https://www.visugpx.com">
  <metadata>
    <name>11655217-Coteaux de Connelles</name>
    <desc><![CDATA[balade en bord de Seine]]></desc>
  </metadata>
  <trk>
    <name><![CDATA[11655217-Coteaux de Connelles]]></name>
    <trkseg>
      <trkpt lat="49.2919" lon="1.26069">
        <ele>9</ele>
        <time>2020-07-11T18:28:11Z</time>
      </trkpt>
      <trkpt lat="49.29214" lon="1.26034">
        <ele>9</ele>
        <time>2020-07-11T18:28:38Z</time>
      </trkpt>
      <trkpt lat="49.29237" lon="1.26008">
        <ele>10</ele>
        <time>2020-07-11T18:29:00Z</time>
      </trkpt>
      <trkpt lat="49.29302" lon="1.25947">
        <ele>12</ele>
        <time>2020-07-11T18:30:01Z</time>
      </trkpt>
      <trkpt lat="49.29331" lon="1.25927">
        <ele>13</ele>
        <time>2020-07-11T18:30:27Z</time>
      </trkpt>
      <trkpt lat="49.29415" lon="1.25858">
        <ele>12</ele>
        <time>2020-07-11T18:31:43Z</time>
      </trkpt>
      <trkpt lat="49.29497" lon="1.25769">
        <ele>11</ele>
        <time>2020-07-11T18:33:04Z</time>
      </trkpt>
      <trkpt lat="49.29532" lon="1.2574">
        <ele>11</ele>
        <time>2020-07-11T18:33:35Z</time>
      </trkpt>
      <trkpt lat="49.29561" lon="1.2571">
        <ele>11</ele>
        <time>2020-07-11T18:34:03Z</time>
      </trkpt>
      <trkpt lat="49.29585" lon="1.2568">
        <ele>11</ele>
        <time>2020-07-11T18:34:28Z</time>
      </trkpt>
      <trkpt lat="49.29659" lon="1.25573">
        <ele>12</ele>
        <time>2020-07-11T18:35:50Z</time>
      </trkpt>
      <trkpt lat="49.29716" lon="1.25512">
        <ele>13</ele>
        <time>2020-07-11T18:36:45Z</time>
      </trkpt>
      <trkpt lat="49.29775" lon="1.25459">
        <ele>15</ele>
        <time>2020-07-11T18:37:40Z</time>
      </trkpt>
      <trkpt lat="49.29833" lon="1.25401">
        <ele>16</ele>
        <time>2020-07-11T18:38:36Z</time>
      </trkpt>
      <trkpt lat="49.29895" lon="1.25344">
        <ele>13</ele>
        <time>2020-07-11T18:39:33Z</time>
      </trkpt>
      <trkpt lat="49.29934" lon="1.25299">
        <ele>12</ele>
        <time>2020-07-11T18:40:13Z</time>
      </trkpt>
      <trkpt lat="49.29955" lon="1.25257">
        <ele>12</ele>
        <time>2020-07-11T18:40:40Z</time>
      </trkpt>
      <trkpt lat="49.29984" lon="1.25225">
        <ele>12</ele>
        <time>2020-07-11T18:41:09Z</time>
      </trkpt>
      <trkpt lat="49.30094" lon="1.25143">
        <ele>12</ele>
        <time>2020-07-11T18:42:47Z</time>
      </trkpt>
      <trkpt lat="49.30201" lon="1.25057">
        <ele>9</ele>
        <time>2020-07-11T18:44:23Z</time>
      </trkpt>
      <trkpt lat="49.30228" lon="1.25017">
        <ele>8</ele>
        <time>2020-07-11T18:44:53Z</time>
      </trkpt>
      <trkpt lat="49.3027" lon="1.24921">
        <ele>10</ele>
        <time>2020-07-11T18:45:54Z</time>
      </trkpt>
      <trkpt lat="49.30289" lon="1.24889">
        <ele>9</ele>
        <time>2020-07-11T18:46:16Z</time>
      </trkpt>
      <trkpt lat="49.30347" lon="1.24831">
        <ele>9</ele>
        <time>2020-07-11T18:47:12Z</time>
      </trkpt>
      <trkpt lat="49.30431" lon="1.24738">
        <ele>9</ele>
        <time>2020-07-11T18:48:35Z</time>
      </trkpt>
      <trkpt lat="49.30472" lon="1.24685">
        <ele>9</ele>
        <time>2020-07-11T18:49:18Z</time>
      </trkpt>
      <trkpt lat="49.305" lon="1.24618">
        <ele>9</ele>
        <time>2020-07-11T18:49:59Z</time>
      </trkpt>
      <trkpt lat="49.30535" lon="1.24502">
        <ele>8</ele>
        <time>2020-07-11T18:51:06Z</time>
      </trkpt>
      <trkpt lat="49.30603" lon="1.24348">
        <ele>9</ele>
        <time>2020-07-11T18:52:43Z</time>
      </trkpt>
      <trkpt lat="49.30651" lon="1.24249">
        <ele>9</ele>
        <time>2020-07-11T18:53:48Z</time>
      </trkpt>
      <trkpt lat="49.30718" lon="1.24151">
        <ele>8</ele>
        <time>2020-07-11T18:55:02Z</time>
      </trkpt>
      <trkpt lat="49.30728" lon="1.2414">
        <ele>8</ele>
        <time>2020-07-11T18:55:12Z</time>
      </trkpt>
      <trkpt lat="49.30762" lon="1.24089">
        <ele>8</ele>
        <time>2020-07-11T18:55:50Z</time>
      </trkpt>
      <trkpt lat="49.3079" lon="1.23983">
        <ele>8</ele>
        <time>2020-07-11T18:56:49Z</time>
      </trkpt>
      <trkpt lat="49.30816" lon="1.23826">
        <ele>8</ele>
        <time>2020-07-11T18:58:14Z</time>
      </trkpt>
      <trkpt lat="49.30837" lon="1.23825">
        <ele>7</ele>
        <time>2020-07-11T18:58:31Z</time>
      </trkpt>
      <trkpt lat="49.30847" lon="1.23812">
        <ele>7</ele>
        <time>2020-07-11T18:58:41Z</time>
      </trkpt>
      <trkpt lat="49.30858" lon="1.23782">
        <ele>7</ele>
        <time>2020-07-11T18:58:59Z</time>
      </trkpt>
      <trkpt lat="49.30863" lon="1.23752">
        <ele>7</ele>
        <time>2020-07-11T18:59:15Z</time>
      </trkpt>
      <trkpt lat="49.30863" lon="1.23726">
        <ele>7</ele>
        <time>2020-07-11T18:59:29Z</time>
      </trkpt>
      <trkpt lat="49.30846" lon="1.23662">
        <ele>6</ele>
        <time>2020-07-11T19:00:05Z</time>
      </trkpt>
      <trkpt lat="49.30839" lon="1.23613">
        <ele>7</ele>
        <time>2020-07-11T19:00:31Z</time>
      </trkpt>
      <trkpt lat="49.30839" lon="1.2356">
        <ele>7</ele>
        <time>2020-07-11T19:00:59Z</time>
      </trkpt>
      <trkpt lat="49.30841" lon="1.23534">
        <ele>8</ele>
        <time>2020-07-11T19:01:12Z</time>
      </trkpt>
      <trkpt lat="49.30852" lon="1.23479">
        <ele>8</ele>
        <time>2020-07-11T19:01:43Z</time>
      </trkpt>
      <trkpt lat="49.30866" lon="1.23503">
        <ele>7</ele>
        <time>2020-07-11T19:01:59Z</time>
      </trkpt>
      <trkpt lat="49.30913" lon="1.2355">
        <ele>5</ele>
        <time>2020-07-11T19:02:44Z</time>
      </trkpt>
      <trkpt lat="49.30933" lon="1.23561">
        <ele>5</ele>
        <time>2020-07-11T19:03:01Z</time>
      </trkpt>
      <trkpt lat="49.31241" lon="1.23821">
        <ele>9</ele>
        <time>2020-07-11T19:07:43Z</time>
      </trkpt>
      <trkpt lat="49.31257" lon="1.23837">
        <ele>9</ele>
        <time>2020-07-11T19:07:58Z</time>
      </trkpt>
      <trkpt lat="49.3126" lon="1.23787">
        <ele>9</ele>
        <time>2020-07-11T19:08:24Z</time>
      </trkpt>
      <trkpt lat="49.31263" lon="1.23782">
        <ele>9</ele>
        <time>2020-07-11T19:08:28Z</time>
      </trkpt>
      <trkpt lat="49.31266" lon="1.23868">
        <ele>10</ele>
        <time>2020-07-11T19:09:13Z</time>
      </trkpt>
      <trkpt lat="49.31251" lon="1.23948">
        <ele>8</ele>
        <time>2020-07-11T19:09:56Z</time>
      </trkpt>
      <trkpt lat="49.31248" lon="1.23974">
        <ele>8</ele>
        <time>2020-07-11T19:10:10Z</time>
      </trkpt>
      <trkpt lat="49.31246" lon="1.24005">
        <ele>7</ele>
        <time>2020-07-11T19:10:26Z</time>
      </trkpt>
      <trkpt lat="49.31245" lon="1.24014">
        <ele>8</ele>
        <time>2020-07-11T19:10:31Z</time>
      </trkpt>
      <trkpt lat="49.31238" lon="1.24077">
        <ele>10</ele>
        <time>2020-07-11T19:11:04Z</time>
      </trkpt>
      <trkpt lat="49.31225" lon="1.24156">
        <ele>12</ele>
        <time>2020-07-11T19:11:47Z</time>
      </trkpt>
      <trkpt lat="49.31193" lon="1.243">
        <ele>12</ele>
        <time>2020-07-11T19:13:06Z</time>
      </trkpt>
      <trkpt lat="49.31177" lon="1.24362">
        <ele>11</ele>
        <time>2020-07-11T19:13:41Z</time>
      </trkpt>
      <trkpt lat="49.31143" lon="1.2447">
        <ele>11</ele>
        <time>2020-07-11T19:14:44Z</time>
      </trkpt>
      <trkpt lat="49.31118" lon="1.24541">
        <ele>11</ele>
        <time>2020-07-11T19:15:26Z</time>
      </trkpt>
      <trkpt lat="49.31095" lon="1.2459">
        <ele>12</ele>
        <time>2020-07-11T19:15:57Z</time>
      </trkpt>
      <trkpt lat="49.31081" lon="1.24603">
        <ele>12</ele>
        <time>2020-07-11T19:16:10Z</time>
      </trkpt>
      <trkpt lat="49.31035" lon="1.2469">
        <ele>13</ele>
        <time>2020-07-11T19:17:09Z</time>
      </trkpt>
      <trkpt lat="49.30981" lon="1.24799">
        <ele>12</ele>
        <time>2020-07-11T19:18:20Z</time>
      </trkpt>
      <trkpt lat="49.30962" lon="1.24833">
        <ele>11</ele>
        <time>2020-07-11T19:18:44Z</time>
      </trkpt>
      <trkpt lat="49.30956" lon="1.24859">
        <ele>11</ele>
        <time>2020-07-11T19:18:58Z</time>
      </trkpt>
      <trkpt lat="49.30903" lon="1.24946">
        <ele>10</ele>
        <time>2020-07-11T19:20:00Z</time>
      </trkpt>
      <trkpt lat="49.30874" lon="1.24977">
        <ele>11</ele>
        <time>2020-07-11T19:20:29Z</time>
      </trkpt>
      <trkpt lat="49.30739" lon="1.25172">
        <ele>11</ele>
        <time>2020-07-11T19:22:57Z</time>
      </trkpt>
      <trkpt lat="49.30726" lon="1.25196">
        <ele>11</ele>
        <time>2020-07-11T19:23:13Z</time>
      </trkpt>
      <trkpt lat="49.30718" lon="1.25203">
        <ele>12</ele>
        <time>2020-07-11T19:23:21Z</time>
      </trkpt>
      <trkpt lat="49.30708" lon="1.25216">
        <ele>12</ele>
        <time>2020-07-11T19:23:31Z</time>
      </trkpt>
      <trkpt lat="49.30676" lon="1.25275">
        <ele>12</ele>
        <time>2020-07-11T19:24:11Z</time>
      </trkpt>
      <trkpt lat="49.30645" lon="1.25325">
        <ele>11</ele>
        <time>2020-07-11T19:24:47Z</time>
      </trkpt>
      <trkpt lat="49.30625" lon="1.25364">
        <ele>10</ele>
        <time>2020-07-11T19:25:13Z</time>
      </trkpt>
      <trkpt lat="49.30612" lon="1.25384">
        <ele>10</ele>
        <time>2020-07-11T19:25:28Z</time>
      </trkpt>
      <trkpt lat="49.30593" lon="1.25421">
        <ele>10</ele>
        <time>2020-07-11T19:25:53Z</time>
      </trkpt>
      <trkpt lat="49.3057" lon="1.25459">
        <ele>10</ele>
        <time>2020-07-11T19:26:20Z</time>
      </trkpt>
      <trkpt lat="49.30512" lon="1.25564">
        <ele>9</ele>
        <time>2020-07-11T19:27:32Z</time>
      </trkpt>
      <trkpt lat="49.30491" lon="1.25587">
        <ele>9</ele>
        <time>2020-07-11T19:27:52Z</time>
      </trkpt>
      <trkpt lat="49.30454" lon="1.2564">
        <ele>11</ele>
        <time>2020-07-11T19:28:33Z</time>
      </trkpt>
      <trkpt lat="49.3041" lon="1.25686">
        <ele>12</ele>
        <time>2020-07-11T19:29:15Z</time>
      </trkpt>
      <trkpt lat="49.3041" lon="1.25686">
        <ele>12</ele>
        <time>2020-07-11T19:29:15Z</time>
      </trkpt>
      <trkpt lat="49.30363" lon="1.25728">
        <ele>12</ele>
        <time>2020-07-11T19:29:59Z</time>
      </trkpt>
      <trkpt lat="49.30302" lon="1.25778">
        <ele>12</ele>
        <time>2020-07-11T19:30:54Z</time>
      </trkpt>
      <trkpt lat="49.30251" lon="1.25806">
        <ele>11</ele>
        <time>2020-07-11T19:31:38Z</time>
      </trkpt>
      <trkpt lat="49.30177" lon="1.2586">
        <ele>9</ele>
        <time>2020-07-11T19:32:43Z</time>
      </trkpt>
      <trkpt lat="49.30093" lon="1.25924">
        <ele>11</ele>
        <time>2020-07-11T19:33:58Z</time>
      </trkpt>
      <trkpt lat="49.30071" lon="1.25948">
        <ele>10</ele>
        <time>2020-07-11T19:34:20Z</time>
      </trkpt>
      <trkpt lat="49.30045" lon="1.25961">
        <ele>9</ele>
        <time>2020-07-11T19:34:42Z</time>
      </trkpt>
      <trkpt lat="49.30026" lon="1.25991">
        <ele>8</ele>
        <time>2020-07-11T19:35:04Z</time>
      </trkpt>
      <trkpt lat="49.30007" lon="1.26002">
        <ele>7</ele>
        <time>2020-07-11T19:35:20Z</time>
      </trkpt>
      <trkpt lat="49.29879" lon="1.26172">
        <ele>8</ele>
        <time>2020-07-11T19:37:36Z</time>
      </trkpt>
      <trkpt lat="49.2992" lon="1.26263">
        <ele>11</ele>
        <time>2020-07-11T19:38:33Z</time>
      </trkpt>
      <trkpt lat="49.29952" lon="1.26358">
        <ele>18</ele>
        <time>2020-07-11T19:39:29Z</time>
      </trkpt>
      <trkpt lat="49.29852" lon="1.26465">
        <ele>18</ele>
        <time>2020-07-11T19:41:07Z</time>
      </trkpt>
      <trkpt lat="49.29822" lon="1.26486">
        <ele>18</ele>
        <time>2020-07-11T19:41:33Z</time>
      </trkpt>
      <trkpt lat="49.29725" lon="1.26517">
        <ele>20</ele>
        <time>2020-07-11T19:42:53Z</time>
      </trkpt>
      <trkpt lat="49.29694" lon="1.2653">
        <ele>22</ele>
        <time>2020-07-11T19:43:18Z</time>
      </trkpt>
      <trkpt lat="49.29679" lon="1.26527">
        <ele>21</ele>
        <time>2020-07-11T19:43:30Z</time>
      </trkpt>
      <trkpt lat="49.29605" lon="1.26546">
        <ele>20</ele>
        <time>2020-07-11T19:44:30Z</time>
      </trkpt>
      <trkpt lat="49.29563" lon="1.2656">
        <ele>18</ele>
        <time>2020-07-11T19:45:05Z</time>
      </trkpt>
      <trkpt lat="49.29547" lon="1.26568">
        <ele>18</ele>
        <time>2020-07-11T19:45:18Z</time>
      </trkpt>
      <trkpt lat="49.29433" lon="1.26645">
        <ele>20</ele>
        <time>2020-07-11T19:46:58Z</time>
      </trkpt>
      <trkpt lat="49.29397" lon="1.26665">
        <ele>18</ele>
        <time>2020-07-11T19:47:29Z</time>
      </trkpt>
      <trkpt lat="49.29398" lon="1.26669">
        <ele>19</ele>
        <time>2020-07-11T19:47:31Z</time>
      </trkpt>
      <trkpt lat="49.29397" lon="1.26677">
        <ele>20</ele>
        <time>2020-07-11T19:47:35Z</time>
      </trkpt>
      <trkpt lat="49.29397" lon="1.26677">
        <ele>20</ele>
        <time>2020-07-11T19:47:35Z</time>
      </trkpt>
      <trkpt lat="49.29417" lon="1.26704">
        <ele>25</ele>
        <time>2020-07-11T19:47:57Z</time>
      </trkpt>
      <trkpt lat="49.29417" lon="1.26704">
        <ele>25</ele>
        <time>2020-07-11T19:47:57Z</time>
      </trkpt>
      <trkpt lat="49.29473" lon="1.26732">
        <ele>50</ele>
        <time>2020-07-11T19:48:44Z</time>
      </trkpt>
      <trkpt lat="49.29473" lon="1.26732">
        <ele>50</ele>
        <time>2020-07-11T19:48:44Z</time>
      </trkpt>
      <trkpt lat="49.29515" lon="1.26752">
        <ele>71</ele>
        <time>2020-07-11T19:49:19Z</time>
      </trkpt>
      <trkpt lat="49.29515" lon="1.26752">
        <ele>71</ele>
        <time>2020-07-11T19:49:19Z</time>
      </trkpt>
      <trkpt lat="49.29546" lon="1.26754">
        <ele>82</ele>
        <time>2020-07-11T19:49:44Z</time>
      </trkpt>
      <trkpt lat="49.29546" lon="1.26754">
        <ele>82</ele>
        <time>2020-07-11T19:49:44Z</time>
      </trkpt>
      <trkpt lat="49.29579" lon="1.26774">
        <ele>97</ele>
        <time>2020-07-11T19:50:12Z</time>
      </trkpt>
      <trkpt lat="49.29579" lon="1.26774">
        <ele>97</ele>
        <time>2020-07-11T19:50:12Z</time>
      </trkpt>
      <trkpt lat="49.2961" lon="1.26769">
        <ele>98</ele>
        <time>2020-07-11T19:50:37Z</time>
      </trkpt>
      <trkpt lat="49.2961" lon="1.26769">
        <ele>98</ele>
        <time>2020-07-11T19:50:37Z</time>
      </trkpt>
      <trkpt lat="49.29619" lon="1.26753">
        <ele>95</ele>
        <time>2020-07-11T19:50:48Z</time>
      </trkpt>
      <trkpt lat="49.29619" lon="1.26753">
        <ele>95</ele>
        <time>2020-07-11T19:50:48Z</time>
      </trkpt>
      <trkpt lat="49.29627" lon="1.26757">
        <ele>96</ele>
        <time>2020-07-11T19:50:55Z</time>
      </trkpt>
      <trkpt lat="49.29625" lon="1.26762">
        <ele>97</ele>
        <time>2020-07-11T19:50:58Z</time>
      </trkpt>
      <trkpt lat="49.29631" lon="1.26766">
        <ele>98</ele>
        <time>2020-07-11T19:51:03Z</time>
      </trkpt>
      <trkpt lat="49.29632" lon="1.26765">
        <ele>97</ele>
        <time>2020-07-11T19:51:04Z</time>
      </trkpt>
      <trkpt lat="49.29747" lon="1.26774">
        <ele>91</ele>
        <time>2020-07-11T19:52:36Z</time>
      </trkpt>
      <trkpt lat="49.29748" lon="1.26777">
        <ele>91</ele>
        <time>2020-07-11T19:52:38Z</time>
      </trkpt>
      <trkpt lat="49.2976" lon="1.26765">
        <ele>88</ele>
        <time>2020-07-11T19:52:50Z</time>
      </trkpt>
      <trkpt lat="49.2976" lon="1.26765">
        <ele>88</ele>
        <time>2020-07-11T19:52:50Z</time>
      </trkpt>
      <trkpt lat="49.29856" lon="1.26638">
        <ele>60</ele>
        <time>2020-07-11T19:54:31Z</time>
      </trkpt>
      <trkpt lat="49.29856" lon="1.26638">
        <ele>60</ele>
        <time>2020-07-11T19:54:31Z</time>
      </trkpt>
      <trkpt lat="49.29877" lon="1.26585">
        <ele>49</ele>
        <time>2020-07-11T19:55:04Z</time>
      </trkpt>
      <trkpt lat="49.29877" lon="1.26585">
        <ele>49</ele>
        <time>2020-07-11T19:55:04Z</time>
      </trkpt>
      <trkpt lat="49.2996" lon="1.26566">
        <ele>43</ele>
        <time>2020-07-11T19:56:11Z</time>
      </trkpt>
      <trkpt lat="49.2996" lon="1.26566">
        <ele>43</ele>
        <time>2020-07-11T19:56:11Z</time>
      </trkpt>
      <trkpt lat="49.29991" lon="1.26574">
        <ele>40</ele>
        <time>2020-07-11T19:56:36Z</time>
      </trkpt>
      <trkpt lat="49.29991" lon="1.26574">
        <ele>40</ele>
        <time>2020-07-11T19:56:36Z</time>
      </trkpt>
      <trkpt lat="49.29984" lon="1.2655">
        <ele>39</ele>
        <time>2020-07-11T19:56:50Z</time>
      </trkpt>
      <trkpt lat="49.29981" lon="1.26524">
        <ele>36</ele>
        <time>2020-07-11T19:57:03Z</time>
      </trkpt>
      <trkpt lat="49.29988" lon="1.26501">
        <ele>33</ele>
        <time>2020-07-11T19:57:17Z</time>
      </trkpt>
      <trkpt lat="49.29995" lon="1.26487">
        <ele>32</ele>
        <time>2020-07-11T19:57:26Z</time>
      </trkpt>
      <trkpt lat="49.3001" lon="1.26471">
        <ele>35</ele>
        <time>2020-07-11T19:57:41Z</time>
      </trkpt>
      <trkpt lat="49.30019" lon="1.26467">
        <ele>38</ele>
        <time>2020-07-11T19:57:48Z</time>
      </trkpt>
      <trkpt lat="49.30032" lon="1.26457">
        <ele>43</ele>
        <time>2020-07-11T19:58:00Z</time>
      </trkpt>
      <trkpt lat="49.30037" lon="1.26455">
        <ele>45</ele>
        <time>2020-07-11T19:58:04Z</time>
      </trkpt>
      <trkpt lat="49.30047" lon="1.26463">
        <ele>49</ele>
        <time>2020-07-11T19:58:13Z</time>
      </trkpt>
      <trkpt lat="49.30064" lon="1.26437">
        <ele>55</ele>
        <time>2020-07-11T19:58:32Z</time>
      </trkpt>
      <trkpt lat="49.30072" lon="1.26439">
        <ele>58</ele>
        <time>2020-07-11T19:58:39Z</time>
      </trkpt>
      <trkpt lat="49.30088" lon="1.26433">
        <ele>64</ele>
        <time>2020-07-11T19:58:52Z</time>
      </trkpt>
      <trkpt lat="49.30091" lon="1.26434">
        <ele>65</ele>
        <time>2020-07-11T19:58:54Z</time>
      </trkpt>
      <trkpt lat="49.30099" lon="1.26428">
        <ele>68</ele>
        <time>2020-07-11T19:59:01Z</time>
      </trkpt>
      <trkpt lat="49.30136" lon="1.26459">
        <ele>85</ele>
        <time>2020-07-11T19:59:35Z</time>
      </trkpt>
      <trkpt lat="49.30142" lon="1.26459">
        <ele>88</ele>
        <time>2020-07-11T19:59:40Z</time>
      </trkpt>
      <trkpt lat="49.30146" lon="1.26449">
        <ele>89</ele>
        <time>2020-07-11T19:59:46Z</time>
      </trkpt>
      <trkpt lat="49.30158" lon="1.26444">
        <ele>93</ele>
        <time>2020-07-11T19:59:56Z</time>
      </trkpt>
      <trkpt lat="49.30159" lon="1.26445">
        <ele>94</ele>
        <time>2020-07-11T19:59:57Z</time>
      </trkpt>
      <trkpt lat="49.30187" lon="1.26383">
        <ele>89</ele>
        <time>2020-07-11T20:00:36Z</time>
      </trkpt>
      <trkpt lat="49.30187" lon="1.26383">
        <ele>89</ele>
        <time>2020-07-11T20:00:36Z</time>
      </trkpt>
      <trkpt lat="49.30204" lon="1.26447">
        <ele>109</ele>
        <time>2020-07-11T20:01:12Z</time>
      </trkpt>
      <trkpt lat="49.30204" lon="1.26447">
        <ele>109</ele>
        <time>2020-07-11T20:01:12Z</time>
      </trkpt>
      <trkpt lat="49.30215" lon="1.26447">
        <ele>112</ele>
        <time>2020-07-11T20:01:21Z</time>
      </trkpt>
      <trkpt lat="49.30215" lon="1.26446">
        <ele>112</ele>
        <time>2020-07-11T20:01:22Z</time>
      </trkpt>
      <trkpt lat="49.30233" lon="1.26434">
        <ele>115</ele>
        <time>2020-07-11T20:01:37Z</time>
      </trkpt>
      <trkpt lat="49.30256" lon="1.26424">
        <ele>120</ele>
        <time>2020-07-11T20:01:57Z</time>
      </trkpt>
      <trkpt lat="49.30269" lon="1.26413">
        <ele>120</ele>
        <time>2020-07-11T20:02:09Z</time>
      </trkpt>
      <trkpt lat="49.30281" lon="1.26396">
        <ele>117</ele>
        <time>2020-07-11T20:02:22Z</time>
      </trkpt>
      <trkpt lat="49.30292" lon="1.26374">
        <ele>113</ele>
        <time>2020-07-11T20:02:36Z</time>
      </trkpt>
      <trkpt lat="49.30305" lon="1.26359">
        <ele>111</ele>
        <time>2020-07-11T20:02:49Z</time>
      </trkpt>
      <trkpt lat="49.30358" lon="1.26305">
        <ele>105</ele>
        <time>2020-07-11T20:03:40Z</time>
      </trkpt>
      <trkpt lat="49.30394" lon="1.26277">
        <ele>102</ele>
        <time>2020-07-11T20:04:12Z</time>
      </trkpt>
      <trkpt lat="49.30435" lon="1.26251">
        <ele>98</ele>
        <time>2020-07-11T20:04:48Z</time>
      </trkpt>
      <trkpt lat="49.30464" lon="1.26239">
        <ele>95</ele>
        <time>2020-07-11T20:05:12Z</time>
      </trkpt>
      <trkpt lat="49.30478" lon="1.26236">
        <ele>94</ele>
        <time>2020-07-11T20:05:23Z</time>
      </trkpt>
      <trkpt lat="49.30485" lon="1.26216">
        <ele>88</ele>
        <time>2020-07-11T20:05:35Z</time>
      </trkpt>
      <trkpt lat="49.3049" lon="1.26185">
        <ele>78</ele>
        <time>2020-07-11T20:05:52Z</time>
      </trkpt>
      <trkpt lat="49.30499" lon="1.26097">
        <ele>51</ele>
        <time>2020-07-11T20:06:38Z</time>
      </trkpt>
      <trkpt lat="49.30503" lon="1.26089">
        <ele>48</ele>
        <time>2020-07-11T20:06:44Z</time>
      </trkpt>
      <trkpt lat="49.30506" lon="1.26088">
        <ele>48</ele>
        <time>2020-07-11T20:06:46Z</time>
      </trkpt>
      <trkpt lat="49.30508" lon="1.26081">
        <ele>46</ele>
        <time>2020-07-11T20:06:50Z</time>
      </trkpt>
      <trkpt lat="49.30514" lon="1.26077">
        <ele>44</ele>
        <time>2020-07-11T20:06:55Z</time>
      </trkpt>
      <trkpt lat="49.30526" lon="1.26088">
        <ele>45</ele>
        <time>2020-07-11T20:07:06Z</time>
      </trkpt>
      <trkpt lat="49.30546" lon="1.26111">
        <ele>48</ele>
        <time>2020-07-11T20:07:26Z</time>
      </trkpt>
      <trkpt lat="49.30527" lon="1.26059">
        <ele>39</ele>
        <time>2020-07-11T20:07:58Z</time>
      </trkpt>
      <trkpt lat="49.30508" lon="1.26015">
        <ele>31</ele>
        <time>2020-07-11T20:08:25Z</time>
      </trkpt>
      <trkpt lat="49.30505" lon="1.26004">
        <ele>28</ele>
        <time>2020-07-11T20:08:31Z</time>
      </trkpt>
      <trkpt lat="49.30493" lon="1.26007">
        <ele>28</ele>
        <time>2020-07-11T20:08:41Z</time>
      </trkpt>
      <trkpt lat="49.30479" lon="1.26016">
        <ele>29</ele>
        <time>2020-07-11T20:08:53Z</time>
      </trkpt>
      <trkpt lat="49.30476" lon="1.26015">
        <ele>28</ele>
        <time>2020-07-11T20:08:56Z</time>
      </trkpt>
      <trkpt lat="49.30488" lon="1.25997">
        <ele>25</ele>
        <time>2020-07-11T20:09:09Z</time>
      </trkpt>
      <trkpt lat="49.30488" lon="1.25994">
        <ele>25</ele>
        <time>2020-07-11T20:09:11Z</time>
      </trkpt>
      <trkpt lat="49.30478" lon="1.25999">
        <ele>25</ele>
        <time>2020-07-11T20:09:19Z</time>
      </trkpt>
      <trkpt lat="49.30474" lon="1.25999">
        <ele>24</ele>
        <time>2020-07-11T20:09:22Z</time>
      </trkpt>
      <trkpt lat="49.30472" lon="1.25996">
        <ele>24</ele>
        <time>2020-07-11T20:09:25Z</time>
      </trkpt>
      <trkpt lat="49.30497" lon="1.25966">
        <ele>22</ele>
        <time>2020-07-11T20:09:50Z</time>
      </trkpt>
      <trkpt lat="49.30502" lon="1.2595">
        <ele>21</ele>
        <time>2020-07-11T20:09:59Z</time>
      </trkpt>
      <trkpt lat="49.3055" lon="1.259">
        <ele>21</ele>
        <time>2020-07-11T20:10:46Z</time>
      </trkpt>
      <trkpt lat="49.30562" lon="1.2593">
        <ele>24</ele>
        <time>2020-07-11T20:11:04Z</time>
      </trkpt>
      <trkpt lat="49.30578" lon="1.25935">
        <ele>26</ele>
        <time>2020-07-11T20:11:17Z</time>
      </trkpt>
      <trkpt lat="49.30598" lon="1.25946">
        <ele>33</ele>
        <time>2020-07-11T20:11:34Z</time>
      </trkpt>
      <trkpt lat="49.30629" lon="1.25969">
        <ele>45</ele>
        <time>2020-07-11T20:12:02Z</time>
      </trkpt>
      <trkpt lat="49.30678" lon="1.25997">
        <ele>65</ele>
        <time>2020-07-11T20:12:44Z</time>
      </trkpt>
      <trkpt lat="49.30734" lon="1.26067">
        <ele>91</ele>
        <time>2020-07-11T20:13:41Z</time>
      </trkpt>
      <trkpt lat="49.30757" lon="1.2609">
        <ele>100</ele>
        <time>2020-07-11T20:14:03Z</time>
      </trkpt>
      <trkpt lat="49.30783" lon="1.2612">
        <ele>109</ele>
        <time>2020-07-11T20:14:29Z</time>
      </trkpt>
      <trkpt lat="49.30804" lon="1.26152">
        <ele>116</ele>
        <time>2020-07-11T20:14:53Z</time>
      </trkpt>
      <trkpt lat="49.30823" lon="1.26175">
        <ele>122</ele>
        <time>2020-07-11T20:15:13Z</time>
      </trkpt>
      <trkpt lat="49.30855" lon="1.26218">
        <ele>128</ele>
        <time>2020-07-11T20:15:47Z</time>
      </trkpt>
      <trkpt lat="49.30874" lon="1.2627">
        <ele>131</ele>
        <time>2020-07-11T20:16:18Z</time>
      </trkpt>
      <trkpt lat="49.30889" lon="1.26316">
        <ele>136</ele>
        <time>2020-07-11T20:16:45Z</time>
      </trkpt>
      <trkpt lat="49.30917" lon="1.26358">
        <ele>143</ele>
        <time>2020-07-11T20:17:16Z</time>
      </trkpt>
      <trkpt lat="49.30968" lon="1.26449">
        <ele>145</ele>
        <time>2020-07-11T20:18:19Z</time>
      </trkpt>
      <trkpt lat="49.3109" lon="1.26158">
        <ele>143</ele>
        <time>2020-07-11T20:21:19Z</time>
      </trkpt>
      <trkpt lat="49.31131" lon="1.25998">
        <ele>143</ele>
        <time>2020-07-11T20:22:49Z</time>
      </trkpt>
      <trkpt lat="49.31125" lon="1.25986">
        <ele>143</ele>
        <time>2020-07-11T20:22:57Z</time>
      </trkpt>
      <trkpt lat="49.31121" lon="1.25961">
        <ele>143</ele>
        <time>2020-07-11T20:23:10Z</time>
      </trkpt>
      <trkpt lat="49.31124" lon="1.25938">
        <ele>143</ele>
        <time>2020-07-11T20:23:23Z</time>
      </trkpt>
      <trkpt lat="49.31135" lon="1.25906">
        <ele>144</ele>
        <time>2020-07-11T20:23:41Z</time>
      </trkpt>
      <trkpt lat="49.3114" lon="1.25878">
        <ele>145</ele>
        <time>2020-07-11T20:23:57Z</time>
      </trkpt>
      <trkpt lat="49.31139" lon="1.25843">
        <ele>146</ele>
        <time>2020-07-11T20:24:15Z</time>
      </trkpt>
      <trkpt lat="49.31132" lon="1.25814">
        <ele>144</ele>
        <time>2020-07-11T20:24:31Z</time>
      </trkpt>
      <trkpt lat="49.31122" lon="1.25776">
        <ele>142</ele>
        <time>2020-07-11T20:24:52Z</time>
      </trkpt>
      <trkpt lat="49.31111" lon="1.25749">
        <ele>140</ele>
        <time>2020-07-11T20:25:09Z</time>
      </trkpt>
      <trkpt lat="49.31103" lon="1.25712">
        <ele>136</ele>
        <time>2020-07-11T20:25:29Z</time>
      </trkpt>
      <trkpt lat="49.31097" lon="1.25675">
        <ele>132</ele>
        <time>2020-07-11T20:25:49Z</time>
      </trkpt>
      <trkpt lat="49.31094" lon="1.2563">
        <ele>127</ele>
        <time>2020-07-11T20:26:13Z</time>
      </trkpt>
      <trkpt lat="49.31096" lon="1.25545">
        <ele>117</ele>
        <time>2020-07-11T20:26:57Z</time>
      </trkpt>
      <trkpt lat="49.31102" lon="1.25478">
        <ele>108</ele>
        <time>2020-07-11T20:27:33Z</time>
      </trkpt>
      <trkpt lat="49.31114" lon="1.25435">
        <ele>101</ele>
        <time>2020-07-11T20:27:57Z</time>
      </trkpt>
      <trkpt lat="49.31142" lon="1.25348">
        <ele>86</ele>
        <time>2020-07-11T20:28:48Z</time>
      </trkpt>
      <trkpt lat="49.312" lon="1.25236">
        <ele>67</ele>
        <time>2020-07-11T20:30:02Z</time>
      </trkpt>
      <trkpt lat="49.31228" lon="1.2516">
        <ele>52</ele>
        <time>2020-07-11T20:30:48Z</time>
      </trkpt>
      <trkpt lat="49.31228" lon="1.25138">
        <ele>50</ele>
        <time>2020-07-11T20:30:59Z</time>
      </trkpt>
      <trkpt lat="49.31218" lon="1.25113">
        <ele>47</ele>
        <time>2020-07-11T20:31:15Z</time>
      </trkpt>
      <trkpt lat="49.31225" lon="1.25118">
        <ele>48</ele>
        <time>2020-07-11T20:31:21Z</time>
      </trkpt>
      <trkpt lat="49.31239" lon="1.25117">
        <ele>48</ele>
        <time>2020-07-11T20:31:32Z</time>
      </trkpt>
      <trkpt lat="49.31269" lon="1.25122">
        <ele>55</ele>
        <time>2020-07-11T20:31:56Z</time>
      </trkpt>
      <trkpt lat="49.3133" lon="1.25103">
        <ele>73</ele>
        <time>2020-07-11T20:32:46Z</time>
      </trkpt>
      <trkpt lat="49.31372" lon="1.25093">
        <ele>90</ele>
        <time>2020-07-11T20:33:20Z</time>
      </trkpt>
      <trkpt lat="49.31374" lon="1.25081">
        <ele>91</ele>
        <time>2020-07-11T20:33:27Z</time>
      </trkpt>
      <trkpt lat="49.31321" lon="1.25032">
        <ele>79</ele>
        <time>2020-07-11T20:34:16Z</time>
      </trkpt>
      <trkpt lat="49.31302" lon="1.25011">
        <ele>75</ele>
        <time>2020-07-11T20:34:35Z</time>
      </trkpt>
      <trkpt lat="49.31273" lon="1.24961">
        <ele>66</ele>
        <time>2020-07-11T20:35:10Z</time>
      </trkpt>
      <trkpt lat="49.31263" lon="1.24924">
        <ele>64</ele>
        <time>2020-07-11T20:35:31Z</time>
      </trkpt>
      <trkpt lat="49.31271" lon="1.2489">
        <ele>64</ele>
        <time>2020-07-11T20:35:50Z</time>
      </trkpt>
      <trkpt lat="49.31281" lon="1.24857">
        <ele>65</ele>
        <time>2020-07-11T20:36:09Z</time>
      </trkpt>
      <trkpt lat="49.31312" lon="1.24786">
        <ele>67</ele>
        <time>2020-07-11T20:36:53Z</time>
      </trkpt>
      <trkpt lat="49.31333" lon="1.24749">
        <ele>68</ele>
        <time>2020-07-11T20:37:19Z</time>
      </trkpt>
      <trkpt lat="49.3136" lon="1.24717">
        <ele>71</ele>
        <time>2020-07-11T20:37:46Z</time>
      </trkpt>
      <trkpt lat="49.31385" lon="1.24684">
        <ele>73</ele>
        <time>2020-07-11T20:38:12Z</time>
      </trkpt>
      <trkpt lat="49.31421" lon="1.24648">
        <ele>76</ele>
        <time>2020-07-11T20:38:47Z</time>
      </trkpt>
      <trkpt lat="49.31442" lon="1.2464">
        <ele>76</ele>
        <time>2020-07-11T20:39:04Z</time>
      </trkpt>
      <trkpt lat="49.31501" lon="1.24628">
        <ele>80</ele>
        <time>2020-07-11T20:39:52Z</time>
      </trkpt>
      <trkpt lat="49.31501" lon="1.24611">
        <ele>76</ele>
        <time>2020-07-11T20:40:01Z</time>
      </trkpt>
      <trkpt lat="49.3152" lon="1.24587">
        <ele>77</ele>
        <time>2020-07-11T20:40:20Z</time>
      </trkpt>
      <trkpt lat="49.31511" lon="1.24554">
        <ele>73</ele>
        <time>2020-07-11T20:40:39Z</time>
      </trkpt>
      <trkpt lat="49.3151" lon="1.24555">
        <ele>73</ele>
        <time>2020-07-11T20:40:40Z</time>
      </trkpt>
      <trkpt lat="49.31431" lon="1.24466">
        <ele>42</ele>
        <time>2020-07-11T20:41:59Z</time>
      </trkpt>
      <trkpt lat="49.31431" lon="1.24466">
        <ele>42</ele>
        <time>2020-07-11T20:41:59Z</time>
      </trkpt>
      <trkpt lat="49.31406" lon="1.24376">
        <ele>25</ele>
        <time>2020-07-11T20:42:50Z</time>
      </trkpt>
      <trkpt lat="49.31407" lon="1.24377">
        <ele>25</ele>
        <time>2020-07-11T20:42:51Z</time>
      </trkpt>
      <trkpt lat="49.31413" lon="1.2436">
        <ele>24</ele>
        <time>2020-07-11T20:43:01Z</time>
      </trkpt>
      <trkpt lat="49.31416" lon="1.24348">
        <ele>23</ele>
        <time>2020-07-11T20:43:07Z</time>
      </trkpt>
      <trkpt lat="49.31438" lon="1.24316">
        <ele>25</ele>
        <time>2020-07-11T20:43:32Z</time>
      </trkpt>
      <trkpt lat="49.31245" lon="1.24014">
        <ele>8</ele>
        <time>2020-07-11T20:47:12Z</time>
      </trkpt>
      <trkpt lat="49.31246" lon="1.24005">
        <ele>7</ele>
        <time>2020-07-11T20:47:17Z</time>
      </trkpt>
      <trkpt lat="49.31248" lon="1.23974">
        <ele>8</ele>
        <time>2020-07-11T20:47:33Z</time>
      </trkpt>
      <trkpt lat="49.31251" lon="1.23948">
        <ele>8</ele>
        <time>2020-07-11T20:47:47Z</time>
      </trkpt>
      <trkpt lat="49.31266" lon="1.23868">
        <ele>10</ele>
        <time>2020-07-11T20:48:31Z</time>
      </trkpt>
      <trkpt lat="49.31263" lon="1.23782">
        <ele>9</ele>
        <time>2020-07-11T20:49:16Z</time>
      </trkpt>
      <trkpt lat="49.3126" lon="1.23787">
        <ele>9</ele>
        <time>2020-07-11T20:49:19Z</time>
      </trkpt>
      <trkpt lat="49.31257" lon="1.23837">
        <ele>9</ele>
        <time>2020-07-11T20:49:45Z</time>
      </trkpt>
      <trkpt lat="49.31241" lon="1.23821">
        <ele>9</ele>
        <time>2020-07-11T20:50:01Z</time>
      </trkpt>
      <trkpt lat="49.30933" lon="1.23561">
        <ele>5</ele>
        <time>2020-07-11T20:54:42Z</time>
      </trkpt>
      <trkpt lat="49.30913" lon="1.2355">
        <ele>5</ele>
        <time>2020-07-11T20:54:59Z</time>
      </trkpt>
      <trkpt lat="49.30864" lon="1.235">
        <ele>8</ele>
        <time>2020-07-11T20:55:46Z</time>
      </trkpt>
    </trkseg>
  </trk>
</gpx>